sensor_id;sensor_type;location;lat;lon;timestamp;P1;durP1;ratioP1;P2;durP2;ratioP2
55559;SDS011;41414;53.250;6.514;2022-10-16T00:02:21;6.63;;;2.63;;
55559;SDS011;41414;53.250;6.514;2022-10-16T00:04:48;7.88;;;2.53;;
55559;SDS011;41414;53.250;6.514;2022-10-16T00:07:14;6.88;;;2.42;;
55559;SDS011;41414;53.250;6.514;2022-10-16T00:09:40;12.68;;;2.45;;
55559;SDS011;41414;53.250;6.514;2022-10-16T00:12:06;11.48;;;2.55;;
55559;SDS011;41414;53.250;6.514;2022-10-16T00:14:32;10.75;;;2.50;;
55559;SDS011;41414;53.250;6.514;2022-10-16T00:16:58;14.05;;;3.08;;
55559;SDS011;41414;53.250;6.514;2022-10-16T00:19:25;5.43;;;2.13;;
55559;SDS011;41414;53.250;6.514;2022-10-16T00:21:51;11.82;;;2.53;;
55559;SDS011;41414;53.250;6.514;2022-10-16T00:24:17;6.40;;;2.28;;
55559;SDS011;41414;53.250;6.514;2022-10-16T00:26:43;7.25;;;2.63;;
55559;SDS011;41414;53.250;6.514;2022-10-16T00:29:09;10.73;;;3.28;;
55559;SDS011;41414;53.250;6.514;2022-10-16T00:31:35;10.45;;;3.05;;
55559;SDS011;41414;53.250;6.514;2022-10-16T00:34:02;8.50;;;2.88;;
55559;SDS011;41414;53.250;6.514;2022-10-16T00:36:28;5.38;;;2.25;;
55559;SDS011;41414;53.250;6.514;2022-10-16T00:38:56;11.18;;;3.40;;
55559;SDS011;41414;53.250;6.514;2022-10-16T00:41:26;9.52;;;2.80;;
55559;SDS011;41414;53.250;6.514;2022-10-16T00:43:54;7.60;;;2.53;;
55559;SDS011;41414;53.250;6.514;2022-10-16T00:46:28;8.73;;;2.83;;
55559;SDS011;41414;53.250;6.514;2022-10-16T00:51:23;8.80;;;4.30;;
55559;SDS011;41414;53.250;6.514;2022-10-16T00:53:51;8.00;;;3.83;;
55559;SDS011;41414;53.250;6.514;2022-10-16T00:56:17;10.68;;;3.67;;
55559;SDS011;41414;53.250;6.514;2022-10-16T00:58:44;6.88;;;4.18;;
55559;SDS011;41414;53.250;6.514;2022-10-16T01:01:10;13.95;;;3.42;;
55559;SDS011;41414;53.250;6.514;2022-10-16T01:03:36;9.63;;;4.78;;
55559;SDS011;41414;53.250;6.514;2022-10-16T01:06:16;10.93;;;3.80;;
55559;SDS011;41414;53.250;6.514;2022-10-16T01:08:49;5.35;;;3.58;;
55559;SDS011;41414;53.250;6.514;2022-10-16T01:11:22;9.38;;;2.90;;
55559;SDS011;41414;53.250;6.514;2022-10-16T01:13:53;6.82;;;3.60;;
55559;SDS011;41414;53.250;6.514;2022-10-16T01:16:28;7.28;;;2.97;;
55559;SDS011;41414;53.250;6.514;2022-10-16T01:18:59;8.40;;;2.97;;
55559;SDS011;41414;53.250;6.514;2022-10-16T01:21:29;7.07;;;2.25;;
55559;SDS011;41414;53.250;6.514;2022-10-16T01:29:26;9.82;;;2.30;;
55559;SDS011;41414;53.250;6.514;2022-10-16T01:31:54;7.82;;;2.05;;
55559;SDS011;41414;53.250;6.514;2022-10-16T01:34:25;6.05;;;2.55;;
55559;SDS011;41414;53.250;6.514;2022-10-16T01:37:00;8.88;;;3.25;;
55559;SDS011;41414;53.250;6.514;2022-10-16T01:39:29;6.82;;;3.90;;
55559;SDS011;41414;53.250;6.514;2022-10-16T01:41:59;8.30;;;5.18;;
55559;SDS011;41414;53.250;6.514;2022-10-16T01:44:28;10.82;;;5.53;;
55559;SDS011;41414;53.250;6.514;2022-10-16T01:46:55;12.32;;;6.22;;
55559;SDS011;41414;53.250;6.514;2022-10-16T01:49:23;9.05;;;4.15;;
55559;SDS011;41414;53.250;6.514;2022-10-16T01:51:52;4.78;;;2.03;;
55559;SDS011;41414;53.250;6.514;2022-10-16T01:54:20;8.35;;;2.55;;
55559;SDS011;41414;53.250;6.514;2022-10-16T01:56:48;5.10;;;2.63;;
55559;SDS011;41414;53.250;6.514;2022-10-16T01:59:16;8.98;;;2.40;;
55559;SDS011;41414;53.250;6.514;2022-10-16T02:01:45;7.57;;;2.20;;
55559;SDS011;41414;53.250;6.514;2022-10-16T02:04:14;3.33;;;1.75;;
55559;SDS011;41414;53.250;6.514;2022-10-16T02:06:41;5.50;;;2.42;;
55559;SDS011;41414;53.250;6.514;2022-10-16T02:09:07;14.57;;;2.80;;
55559;SDS011;41414;53.250;6.514;2022-10-16T02:11:34;5.55;;;2.65;;
55559;SDS011;41414;53.250;6.514;2022-10-16T02:14:01;5.22;;;2.85;;
55559;SDS011;41414;53.250;6.514;2022-10-16T02:16:34;10.48;;;2.63;;
55559;SDS011;41414;53.250;6.514;2022-10-16T02:19:01;7.22;;;2.40;;
55559;SDS011;41414;53.250;6.514;2022-10-16T02:21:29;6.95;;;2.47;;
55559;SDS011;41414;53.250;6.514;2022-10-16T02:24:02;8.85;;;3.00;;
55559;SDS011;41414;53.250;6.514;2022-10-16T02:28:56;7.97;;;2.72;;
55559;SDS011;41414;53.250;6.514;2022-10-16T02:31:26;4.85;;;2.45;;
55559;SDS011;41414;53.250;6.514;2022-10-16T02:33:53;4.70;;;1.83;;
55559;SDS011;41414;53.250;6.514;2022-10-16T02:36:20;7.88;;;2.35;;
55559;SDS011;41414;53.250;6.514;2022-10-16T02:38:47;10.40;;;2.60;;
55559;SDS011;41414;53.250;6.514;2022-10-16T02:41:14;4.65;;;2.28;;
55559;SDS011;41414;53.250;6.514;2022-10-16T02:43:40;4.80;;;2.10;;
55559;SDS011;41414;53.250;6.514;2022-10-16T02:46:06;6.90;;;2.40;;
55559;SDS011;41414;53.250;6.514;2022-10-16T02:48:32;6.80;;;2.70;;
55559;SDS011;41414;53.250;6.514;2022-10-16T02:51:00;5.15;;;2.45;;
55559;SDS011;41414;53.250;6.514;2022-10-16T02:53:26;5.15;;;2.10;;
55559;SDS011;41414;53.250;6.514;2022-10-16T02:55:52;5.10;;;1.95;;
55559;SDS011;41414;53.250;6.514;2022-10-16T02:58:18;5.68;;;2.65;;
55559;SDS011;41414;53.250;6.514;2022-10-16T03:00:44;5.50;;;2.35;;
55559;SDS011;41414;53.250;6.514;2022-10-16T03:03:11;8.50;;;2.22;;
55559;SDS011;41414;53.250;6.514;2022-10-16T03:05:37;10.52;;;2.30;;
55559;SDS011;41414;53.250;6.514;2022-10-16T03:08:03;4.57;;;1.92;;
55559;SDS011;41414;53.250;6.514;2022-10-16T03:10:29;8.43;;;2.28;;
55559;SDS011;41414;53.250;6.514;2022-10-16T03:12:56;6.90;;;2.30;;
55559;SDS011;41414;53.250;6.514;2022-10-16T03:15:22;5.85;;;3.38;;
55559;SDS011;41414;53.250;6.514;2022-10-16T03:17:48;5.47;;;2.10;;
55559;SDS011;41414;53.250;6.514;2022-10-16T03:20:14;6.25;;;2.20;;
55559;SDS011;41414;53.250;6.514;2022-10-16T03:22:40;6.65;;;2.92;;
55559;SDS011;41414;53.250;6.514;2022-10-16T03:25:07;3.90;;;1.92;;
55559;SDS011;41414;53.250;6.514;2022-10-16T03:27:33;6.25;;;2.40;;
55559;SDS011;41414;53.250;6.514;2022-10-16T03:29:59;6.75;;;1.98;;
55559;SDS011;41414;53.250;6.514;2022-10-16T03:32:25;5.75;;;2.08;;
55559;SDS011;41414;53.250;6.514;2022-10-16T03:34:53;3.55;;;1.85;;
55559;SDS011;41414;53.250;6.514;2022-10-16T03:37:21;3.90;;;2.03;;
55559;SDS011;41414;53.250;6.514;2022-10-16T03:39:47;3.53;;;1.90;;
55559;SDS011;41414;53.250;6.514;2022-10-16T03:42:13;5.28;;;2.13;;
55559;SDS011;41414;53.250;6.514;2022-10-16T03:44:39;4.68;;;2.20;;
55559;SDS011;41414;53.250;6.514;2022-10-16T03:47:06;8.05;;;2.55;;
55559;SDS011;41414;53.250;6.514;2022-10-16T03:49:32;5.45;;;2.65;;
55559;SDS011;41414;53.250;6.514;2022-10-16T03:51:58;5.55;;;2.45;;
55559;SDS011;41414;53.250;6.514;2022-10-16T03:54:24;5.75;;;2.67;;
55559;SDS011;41414;53.250;6.514;2022-10-16T03:56:50;7.50;;;2.70;;
55559;SDS011;41414;53.250;6.514;2022-10-16T03:59:16;10.88;;;5.75;;
55559;SDS011;41414;53.250;6.514;2022-10-16T04:01:43;9.13;;;3.70;;
55559;SDS011;41414;53.250;6.514;2022-10-16T04:04:09;5.93;;;3.35;;
55559;SDS011;41414;53.250;6.514;2022-10-16T04:06:35;8.82;;;3.10;;
55559;SDS011;41414;53.250;6.514;2022-10-16T04:09:01;4.40;;;2.65;;
55559;SDS011;41414;53.250;6.514;2022-10-16T04:11:27;3.58;;;2.55;;
55559;SDS011;41414;53.250;6.514;2022-10-16T04:13:54;4.40;;;2.83;;
55559;SDS011;41414;53.250;6.514;2022-10-16T04:16:20;5.68;;;2.67;;
55559;SDS011;41414;53.250;6.514;2022-10-16T04:18:46;6.00;;;2.30;;
55559;SDS011;41414;53.250;6.514;2022-10-16T04:21:12;6.43;;;2.25;;
55559;SDS011;41414;53.250;6.514;2022-10-16T04:23:38;5.53;;;2.28;;
55559;SDS011;41414;53.250;6.514;2022-10-16T04:26:05;7.72;;;3.08;;
55559;SDS011;41414;53.250;6.514;2022-10-16T04:28:31;6.82;;;2.58;;
55559;SDS011;41414;53.250;6.514;2022-10-16T04:30:57;9.70;;;2.85;;
55559;SDS011;41414;53.250;6.514;2022-10-16T04:33:23;4.15;;;2.20;;
55559;SDS011;41414;53.250;6.514;2022-10-16T04:35:55;4.78;;;2.60;;
55559;SDS011;41414;53.250;6.514;2022-10-16T04:38:21;3.50;;;2.10;;
55559;SDS011;41414;53.250;6.514;2022-10-16T04:40:48;6.25;;;2.53;;
55559;SDS011;41414;53.250;6.514;2022-10-16T04:43:14;5.07;;;2.72;;
55559;SDS011;41414;53.250;6.514;2022-10-16T04:45:40;4.43;;;2.53;;
55559;SDS011;41414;53.250;6.514;2022-10-16T04:48:06;6.35;;;2.50;;
55559;SDS011;41414;53.250;6.514;2022-10-16T04:50:32;5.22;;;2.20;;
55559;SDS011;41414;53.250;6.514;2022-10-16T04:52:58;3.92;;;2.60;;
55559;SDS011;41414;53.250;6.514;2022-10-16T04:55:25;5.55;;;2.55;;
55559;SDS011;41414;53.250;6.514;2022-10-16T04:57:51;6.80;;;2.53;;
55559;SDS011;41414;53.250;6.514;2022-10-16T05:00:17;6.13;;;2.75;;
55559;SDS011;41414;53.250;6.514;2022-10-16T05:02:43;4.85;;;2.88;;
55559;SDS011;41414;53.250;6.514;2022-10-16T05:05:09;4.90;;;2.47;;
55559;SDS011;41414;53.250;6.514;2022-10-16T05:07:36;5.03;;;2.55;;
55559;SDS011;41414;53.250;6.514;2022-10-16T05:10:03;4.70;;;2.60;;
55559;SDS011;41414;53.250;6.514;2022-10-16T05:12:29;5.00;;;2.35;;
55559;SDS011;41414;53.250;6.514;2022-10-16T05:14:55;6.60;;;2.92;;
55559;SDS011;41414;53.250;6.514;2022-10-16T05:17:24;7.05;;;3.05;;
55559;SDS011;41414;53.250;6.514;2022-10-16T05:19:50;7.03;;;2.78;;
55559;SDS011;41414;53.250;6.514;2022-10-16T05:22:16;7.65;;;2.95;;
55559;SDS011;41414;53.250;6.514;2022-10-16T05:24:43;5.75;;;2.70;;
55559;SDS011;41414;53.250;6.514;2022-10-16T05:27:09;8.90;;;3.10;;
55559;SDS011;41414;53.250;6.514;2022-10-16T05:29:36;3.85;;;2.67;;
55559;SDS011;41414;53.250;6.514;2022-10-16T05:32:02;5.70;;;2.15;;
55559;SDS011;41414;53.250;6.514;2022-10-16T05:34:28;8.10;;;4.00;;
55559;SDS011;41414;53.250;6.514;2022-10-16T05:36:54;16.67;;;7.45;;
55559;SDS011;41414;53.250;6.514;2022-10-16T05:39:21;13.07;;;9.18;;
55559;SDS011;41414;53.250;6.514;2022-10-16T05:41:49;13.98;;;9.88;;
55559;SDS011;41414;53.250;6.514;2022-10-16T05:44:15;11.65;;;8.65;;
55559;SDS011;41414;53.250;6.514;2022-10-16T05:46:41;13.27;;;7.57;;
55559;SDS011;41414;53.250;6.514;2022-10-16T05:49:08;10.98;;;7.22;;
55559;SDS011;41414;53.250;6.514;2022-10-16T05:51:34;9.40;;;6.32;;
55559;SDS011;41414;53.250;6.514;2022-10-16T05:54:00;9.82;;;5.35;;
55559;SDS011;41414;53.250;6.514;2022-10-16T05:56:26;9.70;;;4.50;;
55559;SDS011;41414;53.250;6.514;2022-10-16T05:58:52;7.03;;;3.97;;
55559;SDS011;41414;53.250;6.514;2022-10-16T06:01:19;7.68;;;3.78;;
55559;SDS011;41414;53.250;6.514;2022-10-16T06:03:49;9.57;;;4.70;;
55559;SDS011;41414;53.250;6.514;2022-10-16T06:06:16;10.65;;;4.95;;
55559;SDS011;41414;53.250;6.514;2022-10-16T06:08:43;7.97;;;3.75;;
55559;SDS011;41414;53.250;6.514;2022-10-16T06:11:12;15.02;;;4.50;;
55559;SDS011;41414;53.250;6.514;2022-10-16T06:13:39;9.52;;;3.90;;
55559;SDS011;41414;53.250;6.514;2022-10-16T06:16:07;11.75;;;3.53;;
55559;SDS011;41414;53.250;6.514;2022-10-16T06:18:34;6.47;;;3.20;;
55559;SDS011;41414;53.250;6.514;2022-10-16T06:21:06;8.77;;;4.28;;
55559;SDS011;41414;53.250;6.514;2022-10-16T06:23:32;6.22;;;3.67;;
55559;SDS011;41414;53.250;6.514;2022-10-16T06:26:08;7.40;;;3.95;;
55559;SDS011;41414;53.250;6.514;2022-10-16T06:28:35;9.65;;;4.40;;
55559;SDS011;41414;53.250;6.514;2022-10-16T06:31:02;6.97;;;4.30;;
55559;SDS011;41414;53.250;6.514;2022-10-16T06:33:28;8.23;;;4.07;;
55559;SDS011;41414;53.250;6.514;2022-10-16T06:36:05;7.60;;;4.45;;
55559;SDS011;41414;53.250;6.514;2022-10-16T06:38:32;11.27;;;3.72;;
55559;SDS011;41414;53.250;6.514;2022-10-16T06:40:58;8.43;;;4.07;;
55559;SDS011;41414;53.250;6.514;2022-10-16T06:43:25;13.45;;;4.45;;
55559;SDS011;41414;53.250;6.514;2022-10-16T06:45:54;7.72;;;3.80;;
55559;SDS011;41414;53.250;6.514;2022-10-16T06:48:21;10.25;;;3.88;;
55559;SDS011;41414;53.250;6.514;2022-10-16T06:50:58;7.22;;;4.28;;
55559;SDS011;41414;53.250;6.514;2022-10-16T06:53:26;7.65;;;3.72;;
55559;SDS011;41414;53.250;6.514;2022-10-16T06:55:52;7.15;;;3.45;;
55559;SDS011;41414;53.250;6.514;2022-10-16T06:58:19;11.68;;;4.05;;
55559;SDS011;41414;53.250;6.514;2022-10-16T07:00:45;8.52;;;3.55;;
55559;SDS011;41414;53.250;6.514;2022-10-16T07:03:11;10.90;;;3.63;;
55559;SDS011;41414;53.250;6.514;2022-10-16T07:05:39;8.18;;;3.28;;
55559;SDS011;41414;53.250;6.514;2022-10-16T07:08:05;8.55;;;3.22;;
55559;SDS011;41414;53.250;6.514;2022-10-16T07:10:32;5.85;;;3.67;;
55559;SDS011;41414;53.250;6.514;2022-10-16T07:12:58;8.93;;;3.90;;
55559;SDS011;41414;53.250;6.514;2022-10-16T07:15:25;6.10;;;3.17;;
55559;SDS011;41414;53.250;6.514;2022-10-16T07:17:51;7.05;;;2.97;;
55559;SDS011;41414;53.250;6.514;2022-10-16T07:20:17;6.22;;;3.28;;
55559;SDS011;41414;53.250;6.514;2022-10-16T07:22:44;8.88;;;3.30;;
55559;SDS011;41414;53.250;6.514;2022-10-16T07:25:10;8.25;;;3.33;;
55559;SDS011;41414;53.250;6.514;2022-10-16T07:27:36;6.85;;;3.30;;
55559;SDS011;41414;53.250;6.514;2022-10-16T07:30:03;11.52;;;3.15;;
55559;SDS011;41414;53.250;6.514;2022-10-16T07:32:29;6.50;;;2.72;;
55559;SDS011;41414;53.250;6.514;2022-10-16T07:34:57;7.10;;;2.58;;
55559;SDS011;41414;53.250;6.514;2022-10-16T07:37:23;9.55;;;2.97;;
55559;SDS011;41414;53.250;6.514;2022-10-16T07:39:49;4.75;;;2.50;;
55559;SDS011;41414;53.250;6.514;2022-10-16T07:42:15;7.53;;;3.30;;
55559;SDS011;41414;53.250;6.514;2022-10-16T07:44:41;8.93;;;3.05;;
55559;SDS011;41414;53.250;6.514;2022-10-16T07:47:08;7.55;;;2.78;;
55559;SDS011;41414;53.250;6.514;2022-10-16T07:49:34;10.32;;;3.47;;
55559;SDS011;41414;53.250;6.514;2022-10-16T07:52:00;7.38;;;3.40;;
55559;SDS011;41414;53.250;6.514;2022-10-16T07:54:26;9.02;;;4.10;;
55559;SDS011;41414;53.250;6.514;2022-10-16T07:56:52;5.25;;;2.90;;
55559;SDS011;41414;53.250;6.514;2022-10-16T07:59:18;7.72;;;3.47;;
55559;SDS011;41414;53.250;6.514;2022-10-16T08:01:45;8.73;;;3.58;;
55559;SDS011;41414;53.250;6.514;2022-10-16T08:04:11;6.75;;;3.15;;
55559;SDS011;41414;53.250;6.514;2022-10-16T08:06:37;6.53;;;3.22;;
55559;SDS011;41414;53.250;6.514;2022-10-16T08:09:05;5.60;;;3.50;;
55559;SDS011;41414;53.250;6.514;2022-10-16T08:11:31;7.10;;;3.33;;
55559;SDS011;41414;53.250;6.514;2022-10-16T08:13:57;6.55;;;3.90;;
55559;SDS011;41414;53.250;6.514;2022-10-16T08:16:23;7.72;;;4.25;;
55559;SDS011;41414;53.250;6.514;2022-10-16T08:18:50;6.72;;;4.15;;
55559;SDS011;41414;53.250;6.514;2022-10-16T08:21:17;8.07;;;3.65;;
55559;SDS011;41414;53.250;6.514;2022-10-16T08:23:44;7.75;;;4.03;;
55559;SDS011;41414;53.250;6.514;2022-10-16T08:26:10;7.20;;;3.70;;
55559;SDS011;41414;53.250;6.514;2022-10-16T08:28:36;5.95;;;3.22;;
55559;SDS011;41414;53.250;6.514;2022-10-16T08:31:09;6.35;;;3.05;;
55559;SDS011;41414;53.250;6.514;2022-10-16T08:33:36;5.78;;;2.88;;
55559;SDS011;41414;53.250;6.514;2022-10-16T08:36:03;5.45;;;3.35;;
55559;SDS011;41414;53.250;6.514;2022-10-16T08:38:30;8.40;;;3.22;;
55559;SDS011;41414;53.250;6.514;2022-10-16T08:41:01;8.98;;;3.03;;
55559;SDS011;41414;53.250;6.514;2022-10-16T08:43:32;9.13;;;3.45;;
55559;SDS011;41414;53.250;6.514;2022-10-16T08:48:49;6.60;;;3.47;;
55559;SDS011;41414;53.250;6.514;2022-10-16T08:51:19;7.63;;;3.00;;
55559;SDS011;41414;53.250;6.514;2022-10-16T08:53:48;8.30;;;2.78;;
55559;SDS011;41414;53.250;6.514;2022-10-16T08:56:15;7.90;;;3.05;;
55559;SDS011;41414;53.250;6.514;2022-10-16T08:58:43;10.10;;;2.40;;
55559;SDS011;41414;53.250;6.514;2022-10-16T09:01:12;7.10;;;2.80;;
55559;SDS011;41414;53.250;6.514;2022-10-16T09:03:42;6.05;;;2.38;;
55559;SDS011;41414;53.250;6.514;2022-10-16T09:18:44;5.22;;;1.77;;
55559;SDS011;41414;53.250;6.514;2022-10-16T09:21:14;7.25;;;2.30;;
55559;SDS011;41414;53.250;6.514;2022-10-16T09:23:41;5.80;;;2.13;;
55559;SDS011;41414;53.250;6.514;2022-10-16T09:26:09;8.10;;;2.33;;
55559;SDS011;41414;53.250;6.514;2022-10-16T09:28:37;5.57;;;2.08;;
55559;SDS011;41414;53.250;6.514;2022-10-16T09:31:03;7.90;;;2.75;;
55559;SDS011;41414;53.250;6.514;2022-10-16T09:33:30;7.47;;;2.75;;
55559;SDS011;41414;53.250;6.514;2022-10-16T09:35:59;4.57;;;2.05;;
55559;SDS011;41414;53.250;6.514;2022-10-16T09:38:27;7.38;;;2.30;;
55559;SDS011;41414;53.250;6.514;2022-10-16T09:40:54;11.48;;;2.72;;
55559;SDS011;41414;53.250;6.514;2022-10-16T09:43:22;6.47;;;2.53;;
55559;SDS011;41414;53.250;6.514;2022-10-16T09:45:54;6.18;;;1.88;;
55559;SDS011;41414;53.250;6.514;2022-10-16T09:48:21;10.02;;;2.63;;
55559;SDS011;41414;53.250;6.514;2022-10-16T09:50:55;14.43;;;3.63;;
55559;SDS011;41414;53.250;6.514;2022-10-16T09:53:21;14.15;;;3.13;;
55559;SDS011;41414;53.250;6.514;2022-10-16T09:55:48;10.15;;;3.17;;
55559;SDS011;41414;53.250;6.514;2022-10-16T09:58:15;7.53;;;2.58;;
55559;SDS011;41414;53.250;6.514;2022-10-16T10:00:41;12.18;;;3.28;;
55559;SDS011;41414;53.250;6.514;2022-10-16T10:03:19;15.25;;;2.92;;
55559;SDS011;41414;53.250;6.514;2022-10-16T10:05:50;11.52;;;2.85;;
55559;SDS011;41414;53.250;6.514;2022-10-16T10:08:16;10.88;;;2.70;;
55559;SDS011;41414;53.250;6.514;2022-10-16T10:10:44;7.60;;;1.88;;
55559;SDS011;41414;53.250;6.514;2022-10-16T10:13:17;12.32;;;2.72;;
55559;SDS011;41414;53.250;6.514;2022-10-16T10:15:43;12.90;;;3.03;;
55559;SDS011;41414;53.250;6.514;2022-10-16T10:18:16;12.98;;;2.60;;
55559;SDS011;41414;53.250;6.514;2022-10-16T10:20:44;8.50;;;2.47;;
55559;SDS011;41414;53.250;6.514;2022-10-16T10:23:22;13.13;;;2.42;;
55559;SDS011;41414;53.250;6.514;2022-10-16T10:25:49;17.85;;;2.78;;
55559;SDS011;41414;53.250;6.514;2022-10-16T10:28:21;11.55;;;2.88;;
55559;SDS011;41414;53.250;6.514;2022-10-16T10:30:53;8.68;;;2.47;;
55559;SDS011;41414;53.250;6.514;2022-10-16T10:38:28;12.77;;;3.22;;
55559;SDS011;41414;53.250;6.514;2022-10-16T10:41:02;8.70;;;2.10;;
55559;SDS011;41414;53.250;6.514;2022-10-16T10:46:04;11.68;;;2.22;;
55559;SDS011;41414;53.250;6.514;2022-10-16T10:48:39;13.55;;;3.03;;
55559;SDS011;41414;53.250;6.514;2022-10-16T10:51:11;18.55;;;2.72;;
55559;SDS011;41414;53.250;6.514;2022-10-16T10:53:42;11.90;;;2.17;;
55559;SDS011;41414;53.250;6.514;2022-10-16T10:58:45;13.13;;;2.15;;
55559;SDS011;41414;53.250;6.514;2022-10-16T11:01:15;14.90;;;2.83;;
55559;SDS011;41414;53.250;6.514;2022-10-16T11:06:12;11.68;;;2.58;;
55559;SDS011;41414;53.250;6.514;2022-10-16T11:08:45;17.42;;;2.88;;
55559;SDS011;41414;53.250;6.514;2022-10-16T11:11:17;12.35;;;2.53;;
55559;SDS011;41414;53.250;6.514;2022-10-16T11:13:58;12.27;;;2.05;;
55559;SDS011;41414;53.250;6.514;2022-10-16T11:16:28;10.13;;;2.25;;
55559;SDS011;41414;53.250;6.514;2022-10-16T11:19:01;7.18;;;2.00;;
55559;SDS011;41414;53.250;6.514;2022-10-16T11:21:29;10.75;;;2.17;;
55559;SDS011;41414;53.250;6.514;2022-10-16T11:24:09;12.13;;;2.63;;
55559;SDS011;41414;53.250;6.514;2022-10-16T11:26:39;10.13;;;2.38;;
55559;SDS011;41414;53.250;6.514;2022-10-16T11:29:10;9.50;;;2.22;;
55559;SDS011;41414;53.250;6.514;2022-10-16T11:31:40;10.75;;;2.95;;
55559;SDS011;41414;53.250;6.514;2022-10-16T11:34:22;11.43;;;2.22;;
55559;SDS011;41414;53.250;6.514;2022-10-16T11:41:48;8.57;;;1.95;;
55559;SDS011;41414;53.250;6.514;2022-10-16T11:44:19;10.90;;;2.20;;
55559;SDS011;41414;53.250;6.514;2022-10-16T11:46:58;10.73;;;2.55;;
55559;SDS011;41414;53.250;6.514;2022-10-16T11:49:27;9.95;;;2.47;;
55559;SDS011;41414;53.250;6.514;2022-10-16T11:51:59;11.32;;;2.40;;
55559;SDS011;41414;53.250;6.514;2022-10-16T11:54:30;10.57;;;2.45;;
55559;SDS011;41414;53.250;6.514;2022-10-16T11:56:59;11.27;;;2.22;;
55559;SDS011;41414;53.250;6.514;2022-10-16T12:01:57;12.20;;;2.65;;
55559;SDS011;41414;53.250;6.514;2022-10-16T12:04:27;6.72;;;2.08;;
55559;SDS011;41414;53.250;6.514;2022-10-16T12:07:02;14.40;;;3.05;;
55559;SDS011;41414;53.250;6.514;2022-10-16T12:09:29;11.32;;;2.10;;
55559;SDS011;41414;53.250;6.514;2022-10-16T12:11:56;9.98;;;2.40;;
55559;SDS011;41414;53.250;6.514;2022-10-16T12:14:37;11.57;;;2.10;;
55559;SDS011;41414;53.250;6.514;2022-10-16T12:17:24;13.07;;;2.42;;
55559;SDS011;41414;53.250;6.514;2022-10-16T12:20:12;11.05;;;2.42;;
55559;SDS011;41414;53.250;6.514;2022-10-16T12:22:42;14.52;;;2.55;;
55559;SDS011;41414;53.250;6.514;2022-10-16T12:25:22;10.52;;;2.60;;
55559;SDS011;41414;53.250;6.514;2022-10-16T12:27:54;9.40;;;2.25;;
55559;SDS011;41414;53.250;6.514;2022-10-16T12:30:22;16.80;;;2.90;;
55559;SDS011;41414;53.250;6.514;2022-10-16T12:32:53;13.55;;;2.72;;
55559;SDS011;41414;53.250;6.514;2022-10-16T12:35:21;9.45;;;1.73;;
55559;SDS011;41414;53.250;6.514;2022-10-16T12:37:48;11.63;;;2.03;;
55559;SDS011;41414;53.250;6.514;2022-10-16T12:40:24;7.65;;;1.92;;
55559;SDS011;41414;53.250;6.514;2022-10-16T12:42:51;10.48;;;2.13;;
55559;SDS011;41414;53.250;6.514;2022-10-16T12:47:51;7.00;;;1.83;;
55559;SDS011;41414;53.250;6.514;2022-10-16T12:50:29;8.75;;;2.03;;
55559;SDS011;41414;53.250;6.514;2022-10-16T12:52:56;13.02;;;2.42;;
55559;SDS011;41414;53.250;6.514;2022-10-16T12:55:23;7.78;;;1.90;;
55559;SDS011;41414;53.250;6.514;2022-10-16T12:58:09;10.35;;;2.10;;
55559;SDS011;41414;53.250;6.514;2022-10-16T13:00:44;7.15;;;2.10;;
55559;SDS011;41414;53.250;6.514;2022-10-16T13:11:00;9.15;;;2.40;;
55559;SDS011;41414;53.250;6.514;2022-10-16T13:13:49;9.27;;;2.42;;
55559;SDS011;41414;53.250;6.514;2022-10-16T13:16:21;12.63;;;2.10;;
55559;SDS011;41414;53.250;6.514;2022-10-16T13:19:04;9.90;;;1.77;;
55559;SDS011;41414;53.250;6.514;2022-10-16T13:21:51;11.35;;;2.40;;
55559;SDS011;41414;53.250;6.514;2022-10-16T13:24:36;6.55;;;1.85;;
55559;SDS011;41414;53.250;6.514;2022-10-16T13:27:15;8.00;;;1.55;;
55559;SDS011;41414;53.250;6.514;2022-10-16T13:29:44;7.43;;;1.88;;
55559;SDS011;41414;53.250;6.514;2022-10-16T13:32:11;10.23;;;2.13;;
55559;SDS011;41414;53.250;6.514;2022-10-16T13:34:45;7.50;;;1.85;;
55559;SDS011;41414;53.250;6.514;2022-10-16T13:37:18;9.15;;;2.13;;
55559;SDS011;41414;53.250;6.514;2022-10-16T13:39:45;5.72;;;1.63;;
55559;SDS011;41414;53.250;6.514;2022-10-16T13:44:49;9.10;;;1.92;;
55559;SDS011;41414;53.250;6.514;2022-10-16T13:47:17;7.10;;;1.70;;
55559;SDS011;41414;53.250;6.514;2022-10-16T13:49:44;6.97;;;2.13;;
55559;SDS011;41414;53.250;6.514;2022-10-16T13:52:16;13.82;;;3.10;;
55559;SDS011;41414;53.250;6.514;2022-10-16T13:54:43;5.35;;;1.50;;
55559;SDS011;41414;53.250;6.514;2022-10-16T13:57:14;8.82;;;2.13;;
55559;SDS011;41414;53.250;6.514;2022-10-16T13:59:40;8.02;;;1.58;;
55559;SDS011;41414;53.250;6.514;2022-10-16T14:04:40;8.27;;;1.98;;
55559;SDS011;41414;53.250;6.514;2022-10-16T14:07:11;7.68;;;1.90;;
55559;SDS011;41414;53.250;6.514;2022-10-16T14:09:39;8.50;;;2.03;;
55559;SDS011;41414;53.250;6.514;2022-10-16T14:12:08;9.82;;;2.30;;
55559;SDS011;41414;53.250;6.514;2022-10-16T14:14:44;10.18;;;2.08;;
55559;SDS011;41414;53.250;6.514;2022-10-16T14:17:24;8.90;;;1.92;;
55559;SDS011;41414;53.250;6.514;2022-10-16T14:19:52;7.88;;;2.08;;
55559;SDS011;41414;53.250;6.514;2022-10-16T14:24:52;9.63;;;2.50;;
55559;SDS011;41414;53.250;6.514;2022-10-16T14:27:24;12.65;;;2.10;;
55559;SDS011;41414;53.250;6.514;2022-10-16T14:30:01;8.23;;;1.92;;
55559;SDS011;41414;53.250;6.514;2022-10-16T14:32:31;7.53;;;2.40;;
55559;SDS011;41414;53.250;6.514;2022-10-16T14:34:57;9.73;;;2.05;;
55559;SDS011;41414;53.250;6.514;2022-10-16T14:37:24;9.05;;;2.30;;
55559;SDS011;41414;53.250;6.514;2022-10-16T14:39:52;10.18;;;2.35;;
55559;SDS011;41414;53.250;6.514;2022-10-16T14:42:19;10.98;;;2.55;;
55559;SDS011;41414;53.250;6.514;2022-10-16T14:44:48;12.43;;;2.70;;
55559;SDS011;41414;53.250;6.514;2022-10-16T14:47:18;6.68;;;1.63;;
55559;SDS011;41414;53.250;6.514;2022-10-16T14:49:47;10.48;;;2.30;;
55559;SDS011;41414;53.250;6.514;2022-10-16T14:52:13;9.38;;;2.22;;
55559;SDS011;41414;53.250;6.514;2022-10-16T14:54:40;9.57;;;2.10;;
55559;SDS011;41414;53.250;6.514;2022-10-16T14:57:13;12.02;;;2.15;;
55559;SDS011;41414;53.250;6.514;2022-10-16T14:59:41;7.68;;;1.65;;
55559;SDS011;41414;53.250;6.514;2022-10-16T15:02:20;13.35;;;2.30;;
55559;SDS011;41414;53.250;6.514;2022-10-16T15:04:48;8.25;;;2.00;;
55559;SDS011;41414;53.250;6.514;2022-10-16T15:07:14;10.05;;;2.22;;
55559;SDS011;41414;53.250;6.514;2022-10-16T15:09:41;12.32;;;2.42;;
55559;SDS011;41414;53.250;6.514;2022-10-16T15:12:07;11.07;;;2.03;;
55559;SDS011;41414;53.250;6.514;2022-10-16T15:14:33;8.43;;;1.95;;
55559;SDS011;41414;53.250;6.514;2022-10-16T15:16:59;11.82;;;2.47;;
55559;SDS011;41414;53.250;6.514;2022-10-16T15:19:25;13.05;;;2.40;;
55559;SDS011;41414;53.250;6.514;2022-10-16T15:21:52;12.02;;;1.98;;
55559;SDS011;41414;53.250;6.514;2022-10-16T15:24:18;10.10;;;2.08;;
55559;SDS011;41414;53.250;6.514;2022-10-16T15:26:44;10.27;;;2.03;;
55559;SDS011;41414;53.250;6.514;2022-10-16T15:29:11;12.13;;;1.90;;
55559;SDS011;41414;53.250;6.514;2022-10-16T15:31:37;11.70;;;2.45;;
55559;SDS011;41414;53.250;6.514;2022-10-16T15:34:08;10.65;;;2.42;;
55559;SDS011;41414;53.250;6.514;2022-10-16T15:36:35;15.32;;;2.65;;
55559;SDS011;41414;53.250;6.514;2022-10-16T15:39:03;7.65;;;2.10;;
55559;SDS011;41414;53.250;6.514;2022-10-16T15:41:29;12.60;;;3.40;;
55559;SDS011;41414;53.250;6.514;2022-10-16T15:43:55;12.75;;;2.53;;
55559;SDS011;41414;53.250;6.514;2022-10-16T15:46:22;10.98;;;2.22;;
55559;SDS011;41414;53.250;6.514;2022-10-16T15:48:49;7.97;;;2.33;;
55559;SDS011;41414;53.250;6.514;2022-10-16T15:51:16;14.90;;;2.92;;
55559;SDS011;41414;53.250;6.514;2022-10-16T15:53:43;12.30;;;2.17;;
55559;SDS011;41414;53.250;6.514;2022-10-16T15:56:11;8.63;;;1.98;;